Time;durP1;ratioP1;P1;durP2;ratioP2;P2;SDS_P1;SDS_P2;PMS_P1;PMS_P2;Temp;Humidity;BMP_temperature;BMP_pressure;BME280_temperature;BME280_humidity;BME280_pressure;Samples;Min_cycle;Max_cycle;Signal;HPM_P1;HPM_P2
2021/04/21 00:00:14;;;;;;;6.80;6.20;;;;;;;6.31;63.43;96365.81;5114498;28;20066;-77
2021/04/21 00:02:44;;;;;;;7.40;6.70;;;;;;;6.25;63.65;96364.78;5115497;28;20046;-78
2021/04/21 00:05:11;;;;;;;7.28;6.25;;;;;;;6.21;63.71;96360.94;5115369;28;20040;-78
2021/04/21 00:07:37;;;;;;;7.25;6.55;;;;;;;6.20;63.65;96361.97;5115370;28;20039;-78
2021/04/21 00:10:06;;;;;;;6.88;6.32;;;;;;;6.18;63.87;96357.94;5115545;28;20422;-78
2021/04/21 00:12:33;;;;;;;7.68;6.90;;;;;;;6.15;63.80;96363.53;5096937;28;20042;-77
2021/04/21 00:14:59;;;;;;;6.82;6.13;;;;;;;6.11;63.77;96347.50;5115183;28;20031;-77
2021/04/21 00:17:27;;;;;;;7.10;6.40;;;;;;;6.08;63.94;96350.47;5114520;28;20047;-77
2021/04/21 00:19:56;;;;;;;7.32;6.50;;;;;;;6.07;63.96;96354.09;5113958;28;20051;-78
2021/04/21 00:22:27;;;;;;;6.63;6.03;;;;;;;6.03;64.00;96353.66;5115031;28;20043;-78
2021/04/21 00:24:53;;;;;;;7.53;6.55;;;;;;;6.01;64.14;96349.66;5114936;28;20031;-78
2021/04/21 00:27:24;;;;;;;6.80;6.20;;;;;;;5.98;64.30;96352.63;5114869;28;20044;-77
2021/04/21 00:30:00;;;;;;;7.65;6.95;;;;;;;5.96;64.30;96344.19;5115164;28;20490;-77
2021/04/21 00:32:28;;;;;;;7.10;6.38;;;;;;;5.94;64.30;96346.16;5096706;28;20480;-78
2021/04/21 00:34:59;;;;;;;7.10;6.45;;;;;;;5.92;64.54;96348.13;5097048;28;20036;-78
2021/04/21 00:37:29;;;;;;;7.38;6.68;;;;;;;5.87;64.41;96346.13;5115002;28;20490;-77
2021/04/21 00:39:57;;;;;;;8.13;7.32;;;;;;;5.84;64.55;96339.50;5114710;28;20035;-77
2021/04/21 00:42:40;;;;;;;7.07;6.43;;;;;;;5.80;64.61;96340.88;5114753;28;20061;-77
2021/04/21 00:45:13;;;;;;;7.53;6.82;;;;;;;5.77;64.39;96338.63;5097038;28;20032;-77
2021/04/21 00:48:02;;;;;;;8.65;7.82;;;;;;;5.74;65.06;96333.81;5114534;28;20047;-77
2021/04/21 00:50:43;;;;;;;8.25;7.45;;;;;;;5.72;65.49;96332.41;5114619;28;20063;-78
2021/04/21 00:53:09;;;;;;;8.48;7.68;;;;;;;5.70;64.88;96327.38;5113872;28;20047;-78
2021/04/21 00:56:05;;;;;;;8.95;8.05;;;;;;;5.70;65.72;96335.19;5114243;28;20379;-77
2021/04/21 00:58:45;;;;;;;9.50;8.23;;;;;;;5.66;65.44;96326.94;5099654;28;20032;-78
2021/04/21 01:01:12;;;;;;;9.90;8.93;;;;;;;5.64;65.20;96322.94;5113804;28;20040;-77
2021/04/21 01:03:41;;;;;;;9.27;8.40;;;;;;;5.62;64.97;96324.94;5114202;28;20047;-78
2021/04/21 01:06:17;;;;;;;8.45;7.53;;;;;;;5.60;65.66;96317.31;5113114;28;20032;-77
2021/04/21 01:08:51;;;;;;;8.93;7.88;;;;;;;5.61;65.50;96318.13;5114219;28;20368;-77
2021/04/21 01:11:32;;;;;;;9.75;8.80;;;;;;;5.58;65.97;96321.88;5114368;28;20039;-77
2021/04/21 01:14:05;;;;;;;9.18;8.30;;;;;;;5.55;65.53;96317.06;5113997;28;20400;-78
2021/04/21 01:16:34;;;;;;;9.15;8.25;;;;;;;5.52;65.42;96314.03;5114097;28;20506;-77
2021/04/21 01:19:09;;;;;;;8.82;8.02;;;;;;;5.48;65.55;96311.00;5113660;28;20522;-78
2021/04/21 01:21:49;;;;;;;8.93;8.02;;;;;;;5.47;66.21;96314.63;5114251;28;20036;-78
2021/04/21 01:24:28;;;;;;;9.30;8.40;;;;;;;5.44;66.42;96312.41;5104144;28;20034;-77
2021/04/21 01:27:06;;;;;;;9.52;8.10;;;;;;;5.40;65.84;96309.38;5095582;28;20035;-77
2021/04/21 01:29:53;;;;;;;9.52;8.38;;;;;;;5.35;66.49;96309.09;5114348;28;20053;-77
2021/04/21 01:32:22;;;;;;;9.50;8.60;;;;;;;5.32;66.11;96309.50;5095545;28;20024;-77
2021/04/21 01:34:51;;;;;;;9.10;8.20;;;;;;;5.30;66.01;96314.09;5095378;28;20034;-78
2021/04/21 01:37:25;;;;;;;8.32;7.53;;;;;;;5.26;66.08;96310.25;5113084;28;20040;-77
2021/04/21 01:40:02;;;;;;;8.95;7.57;;;;;;;5.23;66.20;96316.63;5112902;28;20048;-78
2021/04/21 01:42:32;;;;;;;8.95;8.10;;;;;;;5.19;66.18;96312.78;5113857;28;20027;-77
2021/04/21 01:45:00;;;;;;;8.88;8.00;;;;;;;5.18;66.13;96316.38;5078821;28;20040;-77
2021/04/21 01:47:26;;;;;;;9.13;8.23;;;;;;;5.18;66.06;96318.19;5113377;28;20036;-77
2021/04/21 01:49:59;;;;;;;9.30;8.30;;;;;;;5.16;66.51;96313.16;5113348;28;20052;-77
2021/04/21 01:52:43;;;;;;;9.43;8.10;;;;;;;5.11;67.01;96318.13;5098493;28;20044;-77
2021/04/21 01:55:19;;;;;;;9.07;8.25;;;;;;;5.06;66.81;96315.25;5095770;28;20066;-78
2021/04/21 01:57:53;;;;;;;9.13;7.95;;;;;;;5.01;66.57;96320.22;5113438;28;20051;-78
2021/04/21 02:00:28;;;;;;;;;;;;;;;4.98;67.38;96313.59;5114089;28;20035;-77
2021/04/21 02:03:09;;;;;;;9.65;8.65;;;;;;;4.94;66.73;96312.38;5113560;28;20469;-77
2021/04/21 02:06:09;;;;;;;10.52;9.02;;;;;;;4.93;67.23;96312.53;5113342;28;20032;-78
2021/04/21 02:09:12;;;;;;;9.07;8.25;;;;;;;4.91;67.19;96315.31;5113147;28;20471;-78
2021/04/21 02:11:49;;;;;;;9.02;8.13;;;;;;;4.88;66.80;96313.09;5114405;28;20459;-77
2021/04/21 02:14:44;;;;;;;9.57;8.68;;;;;;;4.87;67.05;96314.91;5117612;28;20046;-78
2021/04/21 02:17:44;;;;;;;8.88;8.00;;;;;;;4.87;67.11;96317.50;5096731;28;20468;-77
2021/04/21 02:20:17;;;;;;;11.43;9.23;;;;;;;4.82;66.81;96319.84;5107759;28;20447;-77
2021/04/21 02:22:57;;;;;;;9.05;8.15;;;;;;;4.80;67.05;96313.22;5117265;28;20035;-78
2021/04/21 02:25:40;;;;;;;8.93;8.13;;;;;;;4.76;67.07;96325.75;5116853;28;20039;-77
2021/04/21 02:29:05;;;;;;;9.80;8.80;;;;;;;4.72;67.36;96315.94;5117465;28;20043;-78
2021/04/21 02:31:52;;;;;;;10.25;9.25;;;;;;;4.65;67.41;96315.88;5026231;28;20046;-78
2021/04/21 02:34:34;;;;;;;10.23;9.23;;;;;;;4.60;67.51;96318.19;5117583;28;20031;-77
2021/04/21 02:37:10;;;;;;;10.13;9.07;;;;;;;4.56;67.38;96322.16;5116968;28;20046;-78
2021/04/21 02:39:47;;;;;;;9.80;8.80;;;;;;;4.54;67.15;96324.16;5116925;28;20038;-77
2021/04/21 02:42:20;;;;;;;10.48;9.43;;;;;;;4.51;67.29;96320.09;5117150;28;20032;-77
2021/04/21 02:44:59;;;;;;;8.95;8.15;;;;;;;4.48;67.82;96318.69;5103195;28;20083;-78
2021/04/21 02:47:30;;;;;;;9.35;8.45;;;;;;;4.45;67.29;96321.66;5116828;28;20042;-78
2021/04/21 02:50:03;;;;;;;9.57;8.52;;;;;;;4.42;67.60;96313.41;5116890;28;20467;-78
2021/04/21 02:53:14;;;;;;;10.40;9.40;;;;;;;4.39;68.26;96322.38;5116941;28;20039;-78
2021/04/21 02:55:52;;;;;;;9.55;8.65;;;;;;;4.34;68.00;96316.09;5116659;28;20031;-77
2021/04/21 02:58:24;;;;;;;9.88;8.95;;;;;;;4.31;67.35;96317.28;5115531;28;20043;-78
2021/04/21 03:01:01;;;;;;;10.15;9.15;;;;;;;4.29;67.81;96315.84;5117125;28;20464;-78
2021/04/21 03:03:42;;;;;;;10.00;9.00;;;;;;;4.27;68.00;96318.63;5103392;28;20024;-77
2021/04/21 03:06:11;;;;;;;10.60;9.38;;;;;;;4.24;67.89;96319.81;5116709;28;20042;-77
2021/04/21 03:08:44;;;;;;;9.60;8.60;;;;;;;4.19;67.95;96310.94;5115518;28;20039;-78
2021/04/21 03:11:21;;;;;;;10.57;9.38;;;;;;;4.16;68.22;96317.31;5116569;28;20034;-78
2021/04/21 03:13:58;;;;;;;10.98;9.88;;;;;;;4.14;68.20;96313.28;5098182;28;20415;-78
2021/04/21 03:16:27;;;;;;;11.18;9.88;;;;;;;4.11;68.03;96318.81;5116540;28;20043;-77
2021/04/21 03:18:56;;;;;;;11.13;10.07;;;;;;;4.09;67.98;96311.19;5116429;28;20058;-78
2021/04/21 03:21:31;;;;;;;10.70;9.18;;;;;;;4.05;68.55;96308.19;5115001;28;20070;-77
2021/04/21 03:24:07;;;;;;;13.55;9.75;;;;;;;4.03;68.14;96309.31;5115492;28;20036;-77
2021/04/21 03:26:35;;;;;;;11.27;10.05;;;;;;;4.01;68.11;96311.28;5115593;28;20062;-77
2021/04/21 03:29:04;;;;;;;10.23;9.02;;;;;;;3.99;68.10;96308.06;5098051;28;20044;-77
2021/04/21 03:31:35;;;;;;;11.70;9.68;;;;;;;3.97;68.54;96310.88;5116092;28;20486;-78
2021/04/21 03:34:08;;;;;;;11.23;9.52;;;;;;;3.96;68.45;96301.47;5115905;28;20034;-77
2021/04/21 03:36:37;;;;;;;10.48;9.38;;;;;;;3.94;68.53;96300.03;5097753;28;20048;-77
2021/04/21 03:39:05;;;;;;;10.93;9.48;;;;;;;3.91;68.25;96295.22;5115845;28;20047;-77
2021/04/21 03:41:31;;;;;;;12.77;10.05;;;;;;;3.90;68.38;96294.41;5115942;28;20468;-78
2021/04/21 03:43:58;;;;;;;10.85;9.73;;;;;;;3.89;68.44;96294.59;5097798;28;20444;-77
2021/04/21 03:46:25;;;;;;;10.88;9.75;;;;;;;3.87;68.46;96297.34;5115995;28;20036;-77
2021/04/21 03:48:52;;;;;;;11.25;9.90;;;;;;;3.87;68.63;96299.97;5115627;28;20039;-78
2021/04/21 03:51:20;;;;;;;11.23;9.65;;;;;;;3.86;68.51;96290.53;5114946;28;20051;-78
2021/04/21 03:53:48;;;;;;;12.38;10.95;;;;;;;3.85;68.75;96291.53;5097562;28;20400;-78
2021/04/21 03:56:18;;;;;;;11.85;10.60;;;;;;;3.82;68.83;96292.72;5115657;28;20036;-78
2021/04/21 03:58:47;;;;;;;12.18;10.13;;;;;;;3.80;68.87;96292.09;5115585;28;20031;-78
2021/04/21 04:01:19;;;;;;;11.88;10.68;;;;;;;3.78;68.67;96288.03;5099535;28;20031;-78
2021/04/21 04:03:50;;;;;;;12.10;10.07;;;;;;;3.76;68.74;96288.25;5114523;28;20036;-78
2021/04/21 04:06:22;;;;;;;11.63;10.43;;;;;;;3.74;68.94;96290.22;5101674;28;20046;-78
2021/04/21 04:08:59;;;;;;;11.20;10.10;;;;;;;3.74;68.94;96299.75;5114268;28;20062;-78
2021/04/21 04:11:45;;;;;;;11.88;10.32;;;;;;;3.73;69.10;96295.56;5097632;28;20036;-78
2021/04/21 04:14:19;;;;;;;11.40;10.13;;;;;;;3.71;68.93;96300.13;5115378;28;20039;-78
2021/04/21 04:16:48;;;;;;;11.98;10.73;;;;;;;3.67;69.00;96297.06;5115516;28;20039;-78
2021/04/21 04:19:15;;;;;;;12.30;10.13;;;;;;;3.63;68.92;96296.63;5115080;28;20043;-78
2021/04/21 04:21:45;;;;;;;12.00;10.57;;;;;;;3.61;69.05;96300.38;5114873;28;20054;-78
2021/04/21 04:24:14;;;;;;;11.23;10.13;;;;;;;3.60;68.99;96302.16;5115247;28;20036;-78
2021/04/21 04:26:42;;;;;;;10.00;9.00;;;;;;;3.59;68.79;96299.75;5114951;28;20043;-78
2021/04/21 04:29:09;;;;;;;12.13;10.77;;;;;;;3.58;68.79;96305.94;5114542;28;20048;-76
2021/04/21 04:31:47;;;;;;;11.85;10.30;;;;;;;3.57;68.89;96305.13;5090758;27;20696;-78
2021/04/21 04:34:16;;;;;;;11.68;9.88;;;;;;;3.56;68.88;96307.88;5075545;28;20388;-78
2021/04/21 04:36:43;;;;;;;11.80;9.95;;;;;;;3.54;68.99;96304.66;5090792;28;20035;-78
2021/04/21 04:39:10;;;;;;;12.48;10.77;;;;;;;3.53;68.88;96313.41;5079280;28;20044;-78
2021/04/21 04:41:38;;;;;;;11.65;10.43;;;;;;;3.49;68.90;96312.97;5089001;28;20401;-78
2021/04/21 04:44:06;;;;;;;11.38;10.23;;;;;;;3.47;69.10;96320.13;5089284;28;20024;-78
2021/04/21 04:46:39;;;;;;;10.38;9.27;;;;;;;3.44;69.04;96318.69;5090078;28;20044;-78
2021/04/21 04:49:10;;;;;;;13.85;9.90;;;;;;;3.44;69.02;96323.06;5090337;28;20059;-78
2021/04/21 04:51:38;;;;;;;12.80;10.15;;;;;;;3.44;68.98;96320.47;5090251;28;20039;-78
2021/04/21 04:54:05;;;;;;;11.38;10.18;;;;;;;3.44;69.15;96330.84;5090513;28;20051;-78
2021/04/21 04:56:33;;;;;;;13.68;10.40;;;;;;;3.50;69.22;96324.94;5090515;28;20032;-78
2021/04/21 04:59:05;;;;;;;10.70;9.60;;;;;;;3.75;69.54;96328.13;5090139;28;20472;-78
2021/04/21 05:01:48;;;;;;;10.40;9.40;;;;;;;4.12;69.42;96336.81;5090803;28;20384;-78
2021/04/21 05:04:16;;;;;;;11.15;9.95;;;;;;;4.47;69.71;96335.25;5080966;28;20484;-78
2021/04/21 05:06:58;;;;;;;9.43;8.52;;;;;;;4.89;68.88;96335.50;5089966;28;20037;-78
2021/04/21 05:09:29;;;;;;;9.82;8.73;;;;;;;5.27;68.88;96330.03;5089762;28;20044;-78
2021/04/21 05:11:58;;;;;;;10.40;9.38;;;;;;;5.64;68.44;96331.53;5090356;28;20044;-78
2021/04/21 05:14:25;;;;;;;10.18;9.18;;;;;;;6.03;68.13;96339.84;5089863;28;20055;-78
2021/04/21 05:17:00;;;;;;;11.40;8.77;;;;;;;6.40;67.46;96332.59;5090162;28;20028;-78
2021/04/21 05:20:10;;;;;;;10.73;9.55;;;;;;;6.80;66.08;96337.94;5089423;28;20036;-78
2021/04/21 05:23:06;;;;;;;10.48;9.48;;;;;;;7.20;65.30;96340.63;5047315;28;20040;-78
2021/04/21 05:26:06;;;;;;;10.00;8.95;;;;;;;7.62;64.14;96344.69;5088964;28;20052;-78
2021/04/21 05:29:07;;;;;;;10.80;9.70;;;;;;;8.04;63.02;96326.97;5083654;28;20385;-78
2021/04/21 05:31:49;;;;;;;10.73;9.63;;;;;;;8.46;62.91;96342.34;5072503;28;20059;-78
2021/04/21 05:34:42;;;;;;;10.85;9.75;;;;;;;8.82;62.43;96343.59;5075192;28;20044;-78
2021/04/21 05:37:37;;;;;;;10.02;9.02;;;;;;;9.21;61.41;96339.94;5089721;28;20044;-78
2021/04/21 05:40:37;;;;;;;10.97;9.87;;;;;;;9.59;59.82;96333.03;5088700;28;20063;-78
2021/04/21 05:43:42;;;;;;;10.32;9.23;;;;;;;9.91;60.12;96336.38;5068539;28;20278;-78
2021/04/21 05:46:52;;;;;;;9.30;8.45;;;;;;;10.30;58.09;96329.16;5075990;28;20035;-78
2021/04/21 05:49:38;;;;;;;9.93;8.93;;;;;;;10.66;57.36;96320.47;5068352;28;20045;-78
2021/04/21 05:52:14;;;;;;;9.75;8.88;;;;;;;10.89;56.71;96313.72;5075700;28;20043;-78
2021/04/21 05:54:49;;;;;;;9.82;8.82;;;;;;;11.03;56.77;96319.59;5075786;28;20047;-78
2021/04/21 05:57:46;;;;;;;9.73;8.23;;;;;;;11.17;54.37;96297.34;5075663;28;20044;-78
2021/04/21 06:00:24;;;;;;;9.88;8.98;;;;;;;11.11;53.58;96295.66;5075375;28;20037;-79
2021/04/21 06:02:51;;;;;;;8.77;7.97;;;;;;;10.84;56.34;96318.84;5075951;28;20464;-78
2021/04/21 06:05:18;;;;;;;9.90;7.57;;;;;;;10.48;56.17;96323.91;5075371;28;20045;-78
2021/04/21 06:07:45;;;;;;;8.85;7.95;;;;;;;10.40;56.16;96323.41;5075183;28;20041;-78
2021/04/21 06:10:28;;;;;;;7.72;6.93;;;;;;;10.34;54.32;96311.97;5073647;28;20406;-78
2021/04/21 06:13:00;;;;;;;7.95;7.22;;;;;;;10.43;55.55;96325.59;5074743;28;20052;-78
2021/04/21 06:15:34;;;;;;;7.70;7.00;;;;;;;10.56;54.95;96323.63;5075493;28;20044;-79
2021/04/21 06:18:06;;;;;;;7.53;6.83;;;;;;;10.54;55.19;96319.59;5075515;28;20048;-78
2021/04/21 06:20:42;;;;;;;7.72;6.93;;;;;;;10.54;53.57;96309.09;5075262;28;20039;-78
2021/04/21 06:23:11;;;;;;;7.93;7.18;;;;;;;10.74;54.61;96325.41;5075429;28;20480;-78
2021/04/21 06:25:45;;;;;;;7.18;6.47;;;;;;;11.06;54.16;96319.94;5075084;28;20476;-78
2021/04/21 06:28:22;;;;;;;6.65;6.13;;;;;;;11.34;53.29;96319.31;5074017;28;20040;-78
2021/04/21 06:31:02;;;;;;;6.90;6.30;;;;;;;11.41;52.96;96310.56;5074668;28;20401;-78
2021/04/21 06:33:47;;;;;;;7.50;6.82;;;;;;;11.54;51.36;96299.81;5074494;28;20047;-78
2021/04/21 06:36:16;;;;;;;7.72;6.70;;;;;;;11.79;52.63;96307.50;5062932;28;20060;-78
2021/04/21 06:38:44;;;;;;;7.30;6.35;;;;;;;11.84;52.19;96301.53;5073623;28;20401;-78
2021/04/21 06:41:12;;;;;;;6.60;6.10;;;;;;;11.87;51.88;96304.53;5056983;28;20049;-78
2021/04/21 06:43:41;;;;;;;7.43;6.72;;;;;;;12.01;51.53;96301.66;5074612;28;20453;-78
2021/04/21 06:46:12;;;;;;;7.20;6.60;;;;;;;11.84;50.99;96299.72;5074546;28;20378;-78
2021/04/21 06:48:40;;;;;;;8.05;7.30;;;;;;;11.88;51.03;96303.50;5074832;28;20033;-79
2021/04/21 06:51:14;;;;;;;8.43;6.60;;;;;;;11.92;50.89;96295.97;5074574;28;20044;-78
2021/04/21 06:53:44;;;;;;;7.50;6.80;;;;;;;12.14;50.62;96296.97;5072162;28;20043;-79
2021/04/21 06:56:12;;;;;;;7.60;6.80;;;;;;;12.37;50.27;96293.50;5073550;28;20051;-78
2021/04/21 06:58:41;;;;;;;7.82;7.03;;;;;;;12.58;50.07;96288.66;5074310;28;20154;-78
2021/04/21 07:01:30;;;;;;;7.78;7.07;;;;;;;12.75;48.73;96281.59;5074329;28;20047;-78
2021/04/21 07:04:10;;;;;;;7.93;7.20;;;;;;;13.01;48.97;96274.16;5073174;28;20048;-78
2021/04/21 07:06:39;;;;;;;8.02;7.18;;;;;;;13.16;48.96;96279.66;5074401;28;20384;-78
2021/04/21 07:09:22;;;;;;;7.95;7.25;;;;;;;13.36;47.15;96260.00;5074517;28;20397;-78
2021/04/21 07:12:01;;;;;;;8.55;7.53;;;;;;;13.58;47.13;96268.75;5074374;28;20503;-78
2021/04/21 07:14:31;;;;;;;8.80;7.57;;;;;;;13.81;48.20;96280.16;5073074;28;20044;-77
2021/04/21 07:17:00;;;;;;;8.20;7.40;;;;;;;14.04;48.05;96273.88;5072464;28;20041;-78
2021/04/21 07:19:29;;;;;;;9.13;8.32;;;;;;;14.11;47.32;96257.88;5073785;28;20024;-78
2021/04/21 07:21:57;;;;;;;9.13;8.23;;;;;;;14.13;47.08;96263.72;5074455;28;20048;-77
2021/04/21 07:24:35;;;;;;;8.95;8.05;;;;;;;14.33;46.12;96260.53;5073950;28;20048;-78
2021/04/21 07:27:12;;;;;;;8.75;7.95;;;;;;;14.39;45.77;96262.97;5060681;28;20040;-78
2021/04/21 07:29:45;;;;;;;8.88;8.05;;;;;;;14.44;45.79;96256.16;5072726;28;20154;-78
2021/04/21 07:32:23;;;;;;;8.98;8.07;;;;;;;14.71;45.96;96256.22;5074018;28;20477;-78
2021/04/21 07:34:58;;;;;;;9.40;8.48;;;;;;;14.87;45.45;96257.97;5073945;28;20032;-78
2021/04/21 07:37:43;;;;;;;9.07;8.27;;;;;;;14.82;44.28;96253.47;5071836;28;20032;-78
2021/04/21 07:40:32;;;;;;;9.50;8.57;;;;;;;14.75;44.92;96252.84;5073071;28;20040;-78
2021/04/21 07:43:17;;;;;;;8.73;8.02;;;;;;;15.06;45.47;96268.19;5073720;28;20481;-78
2021/04/21 07:45:49;;;;;;;;;;;;;;;15.36;44.33;96254.44;5073496;28;20044;-77
2021/04/21 07:48:36;;;;;;;8.70;7.90;;;;;;;15.66;44.28;96260.97;5072855;28;19908;-78
2021/04/21 07:51:19;;;;;;;8.93;8.13;;;;;;;15.98;43.80;96253.00;5062009;28;20029;-78
2021/04/21 07:54:00;;;;;;;8.68;7.90;;;;;;;16.05;44.34;96266.00;5073426;28;20040;-78
2021/04/21 07:56:34;;;;;;;9.98;9.07;;;;;;;16.23;44.13;96260.25;5073932;28;20044;-78
2021/04/21 07:59:17;;;;;;;10.13;9.13;;;;;;;16.09;42.88;96248.56;5072977;28;20048;-78
2021/04/21 08:01:48;;;;;;;9.68;8.68;;;;;;;16.03;43.91;96266.25;5072210;28;20075;-78
2021/04/21 08:04:29;;;;;;;10.23;9.38;;;;;;;16.25;42.64;96258.16;5073224;28;20044;-78
2021/04/21 08:07:01;;;;;;;10.02;9.13;;;;;;;16.53;43.67;96264.88;5072945;28;20071;-78
2021/04/21 08:09:48;;;;;;;10.85;9.85;;;;;;;16.90;41.06;96241.94;5073341;28;20041;-78
2021/04/21 08:12:17;;;;;;;10.45;9.55;;;;;;;16.96;42.78;96296.53;5073206;28;20024;-78
2021/04/21 08:14:49;;;;;;;11.23;10.13;;;;;;;17.16;42.04;96295.78;5073331;28;20476;-78
2021/04/21 08:17:20;;;;;;;11.05;9.95;;;;;;;17.27;41.86;96307.97;5073113;28;20505;-78
2021/04/21 08:19:54;;;;;;;10.25;9.35;;;;;;;17.32;41.48;96302.66;5072818;28;20049;-78
2021/04/21 08:22:28;;;;;;;9.80;8.80;;;;;;;17.53;40.66;96300.81;5062308;28;20044;-77
2021/04/21 08:24:58;;;;;;;10.45;8.82;;;;;;;17.75;40.99;96297.09;5072451;28;20037;-78
2021/04/21 08:27:27;;;;;;;10.27;9.38;;;;;;;17.85;41.11;96303.22;5072347;28;20044;-78
2021/04/21 08:29:57;;;;;;;10.45;9.45;;;;;;;18.03;40.31;96301.84;5072115;28;20052;-78
2021/04/21 08:32:30;;;;;;;10.00;9.10;;;;;;;18.16;40.28;96299.69;5072900;28;20041;-77
2021/04/21 08:35:01;;;;;;;10.32;9.43;;;;;;;18.31;40.26;96304.97;5061442;28;20049;-78
2021/04/21 08:37:33;;;;;;;10.52;9.63;;;;;;;18.37;39.71;96300.44;5072872;28;20489;-78
2021/04/21 08:40:05;;;;;;;11.10;10.00;;;;;;;18.32;39.00;96295.16;5063761;28;20045;-78
2021/04/21 08:42:42;;;;;;;11.10;10.20;;;;;;;18.30;38.64;96290.09;5072164;28;20048;-78
2021/04/21 08:45:13;;;;;;;10.35;9.45;;;;;;;18.36;39.26;96296.19;5072889;28;20031;-78
2021/04/21 08:47:47;;;;;;;10.85;9.85;;;;;;;18.32;39.15;96298.59;5072832;28;20043;-78
2021/04/21 08:50:18;;;;;;;10.57;9.65;;;;;;;18.44;38.97;96299.09;5061311;28;20055;-78
2021/04/21 08:52:56;;;;;;;11.43;10.43;;;;;;;18.59;37.71;96292.91;5073088;28;20043;-78
2021/04/21 08:55:30;;;;;;;10.68;9.77;;;;;;;18.64;37.96;96295.53;5072256;28;20036;-78
2021/04/21 08:58:02;;;;;;;10.82;9.93;;;;;;;18.43;38.35;96289.50;5061306;28;20477;-78
2021/04/21 09:00:32;;;;;;;10.90;10.00;;;;;;;18.44;38.74;96295.63;5072438;28;20083;-78
2021/04/21 09:03:02;;;;;;;10.88;9.85;;;;;;;18.41;38.44;96294.31;5072166;28;20059;-78
2021/04/21 09:05:31;;;;;;;12.23;11.13;;;;;;;18.26;38.59;96300.47;5072451;28;20047;-78
2021/04/21 09:08:02;;;;;;;11.38;10.18;;;;;;;18.29;38.26;96290.38;5072871;28;20028;-77
2021/04/21 09:10:33;;;;;;;10.48;9.57;;;;;;;18.46;38.25;96296.16;5072775;28;20484;-78
2021/04/21 09:13:03;;;;;;;11.35;10.35;;;;;;;18.38;37.86;96297.50;5072399;28;20045;-78
2021/04/21 09:15:34;;;;;;;10.85;9.95;;;;;;;18.18;37.71;96332.06;5071465;28;20049;-78
2021/04/21 09:18:04;;;;;;;10.57;9.73;;;;;;;18.26;38.34;96336.84;5075352;28;20469;-78
2021/04/21 09:20:43;;;;;;;10.88;9.88;;;;;;;18.23;38.02;96342.69;5075754;28;20044;-78
2021/04/21 09:23:15;;;;;;;9.98;8.98;;;;;;;18.37;38.03;96341.06;5076001;28;20045;-78
2021/04/21 09:25:54;;;;;;;9.50;8.70;;;;;;;18.70;37.52;96338.81;5075430;28;20040;-77
2021/04/21 09:28:25;;;;;;;9.93;9.02;;;;;;;18.86;37.49;96328.97;5076005;28;20032;-77
2021/04/21 09:31:00;;;;;;;8.13;7.53;;;;;;;18.95;36.27;96329.16;5075356;28;20052;-77
2021/04/21 09:33:34;;;;;;;7.50;6.90;;;;;;;19.10;36.51;96333.59;5076384;28;20044;-77
2021/04/21 09:36:07;;;;;;;7.80;7.10;;;;;;;19.31;36.00;96336.94;5075077;28;20052;-78
2021/04/21 09:38:38;;;;;;;8.63;7.93;;;;;;;19.25;35.20;96336.94;5075509;28;20036;-77
2021/04/21 09:41:19;;;;;;;7.60;7.00;;;;;;;19.05;33.64;96334.44;5075068;28;20044;-77
2021/04/21 09:43:50;;;;;;;7.63;6.95;;;;;;;19.03;35.29;96336.56;5075904;28;20500;-77
2021/04/21 09:46:23;;;;;;;8.15;7.55;;;;;;;19.17;34.58;96339.41;5075581;28;20035;-77
2021/04/21 09:48:53;;;;;;;9.07;8.27;;;;;;;18.94;34.71;96331.03;5075679;28;20040;-77
2021/04/21 09:51:23;;;;;;;8.35;7.72;;;;;;;18.93;34.69;96337.41;5075411;28;20059;-75
2021/04/21 09:53:57;;;;;;;8.48;7.78;;;;;;;19.20;35.10;96334.34;5075985;28;20461;-75
2021/04/21 09:56:36;;;;;;;8.25;7.65;;;;;;;19.43;34.78;96324.88;5076200;28;20048;-75
2021/04/21 09:59:04;;;;;;;8.63;7.80;;;;;;;19.51;34.41;96315.53;5075059;28;20424;-75
2021/04/21 10:01:37;;;;;;;8.30;7.60;;;;;;;19.57;33.45;96317.06;5076092;28;20036;-75
2021/04/21 10:04:25;;;;;;;8.70;8.00;;;;;;;19.33;32.87;96313.53;5075751;28;20041;-75
2021/04/21 10:07:00;;;;;;;7.10;6.50;;;;;;;19.47;34.29;96314.47;5074962;28;20044;-75
2021/04/21 10:09:37;;;;;;;8.00;7.32;;;;;;;19.58;33.71;96318.63;5075363;28;20041;-77
2021/04/21 10:12:21;;;;;;;7.75;7.15;;;;;;;19.58;33.56;96317.84;5075043;28;20115;-77
2021/04/21 10:15:02;;;;;;;7.40;6.78;;;;;;;19.69;32.71;96306.03;5064764;28;20049;-77
2021/04/21 10:17:40;;;;;;;7.72;7.00;;;;;;;19.78;32.43;96308.91;5074637;28;20036;-77
2021/04/21 10:20:16;;;;;;;7.05;6.55;;;;;;;19.95;31.82;96308.50;5074844;28;20412;-77
2021/04/21 10:22:45;;;;;;;6.82;6.32;;;;;;;19.93;33.26;96311.47;5074703;28;20415;-77
2021/04/21 10:25:15;;;;;;;7.68;6.97;;;;;;;20.17;32.93;96313.34;5074083;28;20040;-77
2021/04/21 10:27:43;;;;;;;7.88;7.25;;;;;;;20.31;32.74;96303.63;5074804;28;20048;-77
2021/04/21 10:30:12;;;;;;;7.18;6.47;;;;;;;20.36;32.52;96305.41;5074702;28;20052;-77
2021/04/21 10:32:40;;;;;;;8.25;7.60;;;;;;;20.14;32.26;96309.38;5074696;28;20055;-77
2021/04/21 10:35:09;;;;;;;7.47;6.93;;;;;;;20.04;32.40;96304.94;5075409;28;20040;-77
2021/04/21 10:37:40;;;;;;;8.10;7.32;;;;;;;19.91;32.48;96300.31;5074859;28;20041;-77
2021/04/21 10:40:13;;;;;;;8.60;6.75;;;;;;;20.26;32.35;96298.31;5062102;28;20040;-77
2021/04/21 10:43:09;;;;;;;7.28;6.68;;;;;;;20.69;31.72;96295.72;5074321;28;20048;-78
2021/04/21 10:45:48;;;;;;;7.25;6.65;;;;;;;20.87;30.20;96294.97;5070195;28;20057;-77
2021/04/21 10:48:52;;;;;;;7.03;6.38;;;;;;;20.66;30.20;96280.28;5074075;28;20041;-77
2021/04/21 10:51:40;;;;;;;6.30;5.80;;;;;;;20.47;30.79;96294.38;5074703;28;20061;-77
2021/04/21 10:54:09;;;;;;;5.28;4.85;;;;;;;20.38;31.21;96290.72;5064597;28;20388;-77
2021/04/21 10:56:37;;;;;;;6.18;5.65;;;;;;;20.55;31.26;96284.94;5073375;28;20051;-78
2021/04/21 10:59:05;;;;;;;5.75;5.35;;;;;;;20.88;30.91;96280.53;5073502;28;20036;-78
2021/04/21 11:01:39;;;;;;;5.72;5.22;;;;;;;21.11;29.65;96279.97;5074347;28;20047;-77
2021/04/21 11:04:12;;;;;;;;;;;;;;;21.25;28.01;96278.13;5074867;28;20360;-77
2021/04/21 11:06:39;;;;;;;6.15;5.68;;;;;;;21.51;29.66;96283.91;5074463;28;19915;-77
2021/04/21 11:09:09;;;;;;;4.82;4.45;;;;;;;21.60;29.17;96270.69;5074591;28;20024;-77
2021/04/21 11:11:47;;;;;;;5.05;4.55;;;;;;;21.94;27.85;96275.69;5073959;28;20048;-77
2021/04/21 11:14:39;;;;;;;5.20;4.80;;;;;;;22.20;28.44;96281.34;5073706;28;20079;-77
2021/04/21 11:17:07;;;;;;;5.43;5.03;;;;;;;22.30;28.16;96277.75;5068456;28;20043;-77
2021/04/21 11:19:45;;;;;;;4.82;4.53;;;;;;;22.47;26.95;96277.91;5073681;28;20044;-77
2021/04/21 11:22:18;;;;;;;4.90;4.50;;;;;;;22.76;27.31;96270.66;5073968;28;20040;-77
2021/04/21 11:25:21;;;;;;;5.55;5.10;;;;;;;22.79;26.64;96267.38;5073464;28;20370;-78
2021/04/21 11:27:50;;;;;;;4.80;4.50;;;;;;;22.74;27.16;96262.94;5073867;28;20059;-77
2021/04/21 11:30:37;;;;;;;4.75;4.35;;;;;;;22.58;25.84;96267.81;5073383;28;20049;-78
2021/04/21 11:33:05;;;;;;;4.03;3.72;;;;;;;22.32;26.62;96264.84;5074245;28;20052;-77
2021/04/21 11:35:33;;;;;;;4.50;4.10;;;;;;;22.22;26.50;96263.16;5073775;28;20045;-78
2021/04/21 11:38:01;;;;;;;4.60;4.20;;;;;;;22.34;26.53;96264.56;5074157;28;20045;-77
2021/04/21 11:40:32;;;;;;;4.47;4.18;;;;;;;22.55;26.33;96264.94;5073255;28;20032;-77
2021/04/21 11:43:16;;;;;;;3.70;3.50;;;;;;;22.78;25.30;96253.19;5073040;28;20420;-78
2021/04/21 11:45:44;;;;;;;3.40;3.10;;;;;;;22.79;25.81;96252.13;5073885;28;20035;-77
2021/04/21 11:48:12;;;;;;;2.80;2.60;;;;;;;22.45;25.86;96255.25;5073362;28;20484;-77
2021/04/21 11:50:43;;;;;;;3.83;2.97;;;;;;;21.86;26.31;96255.81;5072963;28;20420;-77
2021/04/21 11:53:13;;;;;;;4.32;3.45;;;;;;;21.34;26.70;96262.28;5073415;28;20046;-77
2021/04/21 11:56:06;;;;;;;4.90;3.28;;;;;;;20.78;27.67;96269.22;5072034;28;20036;-77
2021/04/21 11:58:40;;;;;;;3.60;3.40;;;;;;;20.45;27.97;96272.56;5073761;28;20036;-77
2021/04/21 12:01:13;;;;;;;4.00;3.53;;;;;;;20.32;28.49;96273.22;5073890;28;20040;-77
2021/04/21 12:03:48;;;;;;;3.78;3.47;;;;;;;20.22;28.47;96268.84;5059302;28;20044;-77
2021/04/21 12:06:18;;;;;;;3.90;3.60;;;;;;;20.61;28.86;96267.06;5073253;28;20401;-77
2021/04/21 12:08:51;;;;;;;4.38;3.97;;;;;;;20.91;28.83;96262.38;5071930;28;20036;-77
2021/04/21 12:11:35;;;;;;;5.15;4.75;;;;;;;21.25;28.85;96272.81;5058243;28;20477;-77